sensor_id;sensor_type;location;lat;lon;timestamp;P1;durP1;ratioP1;P2;durP2;ratioP2
63690;SDS011;49837;57.280;27.070;2022-12-20T00:00:22;9.0;;;4.4;;
63690;SDS011;49837;57.280;27.070;2022-12-20T00:01:24;8.4;;;4.4;;
63690;SDS011;49837;57.280;27.070;2022-12-20T00:02:24;9.6;;;4.6;;
63690;SDS011;49837;57.280;27.070;2022-12-20T00:03:24;7.7;;;4.7;;
63690;SDS011;49837;57.280;27.070;2022-12-20T00:04:24;8.2;;;4.6;;
63690;SDS011;49837;57.280;27.070;2022-12-20T00:05:25;7.6;;;4.3;;
63690;SDS011;49837;57.280;27.070;2022-12-20T00:06:25;8.9;;;4.2;;
63690;SDS011;49837;57.280;27.070;2022-12-20T00:07:26;7.2;;;4.3;;
63690;SDS011;49837;57.280;27.070;2022-12-20T00:08:26;8.7;;;4.3;;
63690;SDS011;49837;57.280;27.070;2022-12-20T00:09:27;7.3;;;4.3;;
63690;SDS011;49837;57.280;27.070;2022-12-20T00:10:27;7.9;;;4.5;;
63690;SDS011;49837;57.280;27.070;2022-12-20T00:11:28;7.9;;;4.3;;
63690;SDS011;49837;57.280;27.070;2022-12-20T00:12:28;7.7;;;4.2;;
63690;SDS011;49837;57.280;27.070;2022-12-20T00:13:29;7.5;;;4.4;;
63690;SDS011;49837;57.280;27.070;2022-12-20T00:14:29;7.5;;;3.9;;
63690;SDS011;49837;57.280;27.070;2022-12-20T00:15:30;8.5;;;4.4;;
63690;SDS011;49837;57.280;27.070;2022-12-20T00:16:30;7.5;;;4.0;;
63690;SDS011;49837;57.280;27.070;2022-12-20T00:17:31;7.9;;;4.2;;
63690;SDS011;49837;57.280;27.070;2022-12-20T00:18:31;8.1;;;4.1;;
63690;SDS011;49837;57.280;27.070;2022-12-20T00:19:32;8.4;;;4.2;;
63690;SDS011;49837;57.280;27.070;2022-12-20T00:20:32;7.0;;;4.0;;
63690;SDS011;49837;57.280;27.070;2022-12-20T00:21:33;8.3;;;4.4;;
63690;SDS011;49837;57.280;27.070;2022-12-20T00:22:33;8.4;;;4.0;;
63690;SDS011;49837;57.280;27.070;2022-12-20T00:23:34;7.9;;;4.2;;
63690;SDS011;49837;57.280;27.070;2022-12-20T00:24:35;8.1;;;4.1;;
63690;SDS011;49837;57.280;27.070;2022-12-20T00:25:35;7.1;;;4.0;;
63690;SDS011;49837;57.280;27.070;2022-12-20T00:26:35;7.0;;;4.1;;
63690;SDS011;49837;57.280;27.070;2022-12-20T00:27:36;7.4;;;4.1;;
63690;SDS011;49837;57.280;27.070;2022-12-20T00:28:36;8.1;;;4.4;;
63690;SDS011;49837;57.280;27.070;2022-12-20T00:29:37;7.4;;;3.7;;
63690;SDS011;49837;57.280;27.070;2022-12-20T00:30:37;7.3;;;4.0;;
63690;SDS011;49837;57.280;27.070;2022-12-20T00:31:38;8.4;;;4.2;;
63690;SDS011;49837;57.280;27.070;2022-12-20T00:32:38;7.9;;;3.8;;
63690;SDS011;49837;57.280;27.070;2022-12-20T00:33:38;7.5;;;3.9;;
63690;SDS011;49837;57.280;27.070;2022-12-20T00:34:39;7.6;;;4.4;;
63690;SDS011;49837;57.280;27.070;2022-12-20T00:35:42;8.3;;;4.0;;
63690;SDS011;49837;57.280;27.070;2022-12-20T00:36:40;7.6;;;4.0;;
63690;SDS011;49837;57.280;27.070;2022-12-20T00:37:40;7.4;;;4.5;;
63690;SDS011;49837;57.280;27.070;2022-12-20T00:38:43;8.5;;;4.4;;
63690;SDS011;49837;57.280;27.070;2022-12-20T00:39:42;8.2;;;4.4;;
63690;SDS011;49837;57.280;27.070;2022-12-20T00:40:42;8.4;;;4.6;;
63690;SDS011;49837;57.280;27.070;2022-12-20T00:41:42;8.0;;;4.2;;
63690;SDS011;49837;57.280;27.070;2022-12-20T00:42:43;8.1;;;4.4;;
63690;SDS011;49837;57.280;27.070;2022-12-20T00:43:43;8.2;;;4.4;;
63690;SDS011;49837;57.280;27.070;2022-12-20T00:44:44;7.9;;;4.2;;
63690;SDS011;49837;57.280;27.070;2022-12-20T00:45:45;7.3;;;3.8;;
63690;SDS011;49837;57.280;27.070;2022-12-20T00:46:45;6.2;;;3.9;;
63690;SDS011;49837;57.280;27.070;2022-12-20T00:47:45;6.6;;;3.9;;
63690;SDS011;49837;57.280;27.070;2022-12-20T00:48:46;8.3;;;4.4;;
63690;SDS011;49837;57.280;27.070;2022-12-20T00:49:46;8.4;;;4.2;;
63690;SDS011;49837;57.280;27.070;2022-12-20T00:50:47;7.8;;;4.1;;
63690;SDS011;49837;57.280;27.070;2022-12-20T00:51:47;8.0;;;3.7;;
63690;SDS011;49837;57.280;27.070;2022-12-20T00:52:47;7.2;;;4.1;;
63690;SDS011;49837;57.280;27.070;2022-12-20T00:53:48;7.8;;;4.1;;
63690;SDS011;49837;57.280;27.070;2022-12-20T00:54:48;7.3;;;3.9;;
63690;SDS011;49837;57.280;27.070;2022-12-20T00:55:49;7.0;;;3.9;;
63690;SDS011;49837;57.280;27.070;2022-12-20T00:56:49;10.3;;;3.9;;
63690;SDS011;49837;57.280;27.070;2022-12-20T00:57:50;7.0;;;4.0;;
63690;SDS011;49837;57.280;27.070;2022-12-20T00:58:50;8.0;;;4.1;;
63690;SDS011;49837;57.280;27.070;2022-12-20T00:59:51;8.9;;;4.0;;
63690;SDS011;49837;57.280;27.070;2022-12-20T01:00:51;7.3;;;4.3;;
63690;SDS011;49837;57.280;27.070;2022-12-20T01:01:53;6.6;;;3.7;;
63690;SDS011;49837;57.280;27.070;2022-12-20T01:02:53;6.8;;;3.5;;
63690;SDS011;49837;57.280;27.070;2022-12-20T01:03:54;8.0;;;4.7;;
63690;SDS011;49837;57.280;27.070;2022-12-20T01:04:54;7.2;;;4.4;;
63690;SDS011;49837;57.280;27.070;2022-12-20T01:05:55;6.8;;;3.9;;
63690;SDS011;49837;57.280;27.070;2022-12-20T01:06:55;7.3;;;4.0;;
63690;SDS011;49837;57.280;27.070;2022-12-20T01:07:55;6.7;;;3.9;;
63690;SDS011;49837;57.280;27.070;2022-12-20T01:08:56;7.3;;;4.1;;
63690;SDS011;49837;57.280;27.070;2022-12-20T01:09:56;6.4;;;3.9;;
63690;SDS011;49837;57.280;27.070;2022-12-20T01:10:58;6.6;;;3.7;;
63690;SDS011;49837;57.280;27.070;2022-12-20T01:11:57;7.2;;;4.0;;
63690;SDS011;49837;57.280;27.070;2022-12-20T01:12:58;6.1;;;3.3;;
63690;SDS011;49837;57.280;27.070;2022-12-20T01:13:59;6.6;;;3.7;;
63690;SDS011;49837;57.280;27.070;2022-12-20T01:14:59;6.5;;;3.6;;
63690;SDS011;49837;57.280;27.070;2022-12-20T01:16:03;6.8;;;3.7;;
63690;SDS011;49837;57.280;27.070;2022-12-20T01:17:02;6.6;;;3.6;;
63690;SDS011;49837;57.280;27.070;2022-12-20T01:18:03;6.7;;;3.7;;
63690;SDS011;49837;57.280;27.070;2022-12-20T01:19:03;6.4;;;3.6;;
63690;SDS011;49837;57.280;27.070;2022-12-20T01:20:04;6.9;;;3.8;;
63690;SDS011;49837;57.280;27.070;2022-12-20T01:21:05;7.3;;;4.1;;
63690;SDS011;49837;57.280;27.070;2022-12-20T01:22:05;7.6;;;4.1;;
63690;SDS011;49837;57.280;27.070;2022-12-20T01:23:06;5.9;;;4.0;;
63690;SDS011;49837;57.280;27.070;2022-12-20T01:24:07;8.2;;;3.7;;
63690;SDS011;49837;57.280;27.070;2022-12-20T01:25:07;6.7;;;3.9;;
63690;SDS011;49837;57.280;27.070;2022-12-20T01:26:09;6.8;;;3.7;;
63690;SDS011;49837;57.280;27.070;2022-12-20T01:27:09;7.0;;;3.9;;
63690;SDS011;49837;57.280;27.070;2022-12-20T01:28:09;6.7;;;3.9;;
63690;SDS011;49837;57.280;27.070;2022-12-20T01:29:10;6.4;;;3.9;;
63690;SDS011;49837;57.280;27.070;2022-12-20T01:30:11;6.7;;;3.7;;
63690;SDS011;49837;57.280;27.070;2022-12-20T01:31:12;7.1;;;3.8;;
63690;SDS011;49837;57.280;27.070;2022-12-20T01:32:11;6.7;;;3.8;;
63690;SDS011;49837;57.280;27.070;2022-12-20T01:33:12;7.4;;;4.3;;
63690;SDS011;49837;57.280;27.070;2022-12-20T01:34:12;6.4;;;3.5;;
63690;SDS011;49837;57.280;27.070;2022-12-20T01:35:13;7.2;;;4.0;;
63690;SDS011;49837;57.280;27.070;2022-12-20T01:36:14;6.0;;;3.6;;
63690;SDS011;49837;57.280;27.070;2022-12-20T01:37:14;8.6;;;4.7;;
63690;SDS011;49837;57.280;27.070;2022-12-20T01:38:14;7.0;;;4.4;;
63690;SDS011;49837;57.280;27.070;2022-12-20T01:39:15;8.0;;;5.3;;
63690;SDS011;49837;57.280;27.070;2022-12-20T01:40:15;6.1;;;3.8;;
63690;SDS011;49837;57.280;27.070;2022-12-20T01:41:16;6.8;;;3.3;;
63690;SDS011;49837;57.280;27.070;2022-12-20T01:42:16;6.3;;;3.6;;
63690;SDS011;49837;57.280;27.070;2022-12-20T01:43:16;6.9;;;4.0;;
63690;SDS011;49837;57.280;27.070;2022-12-20T01:45:24;7.1;;;3.8;;
63690;SDS011;49837;57.280;27.070;2022-12-20T01:46:24;7.0;;;3.8;;
63690;SDS011;49837;57.280;27.070;2022-12-20T01:47:23;6.2;;;3.6;;
63690;SDS011;49837;57.280;27.070;2022-12-20T01:48:24;6.7;;;3.8;;
63690;SDS011;49837;57.280;27.070;2022-12-20T01:49:34;6.5;;;3.7;;
63690;SDS011;49837;57.280;27.070;2022-12-20T01:50:27;6.2;;;3.7;;
63690;SDS011;49837;57.280;27.070;2022-12-20T01:51:28;7.3;;;4.4;;
63690;SDS011;49837;57.280;27.070;2022-12-20T01:52:36;6.2;;;3.6;;
63690;SDS011;49837;57.280;27.070;2022-12-20T01:53:31;6.0;;;3.5;;
63690;SDS011;49837;57.280;27.070;2022-12-20T01:54:51;4.9;;;3.2;;
63690;SDS011;49837;57.280;27.070;2022-12-20T01:55:34;6.1;;;3.3;;
63690;SDS011;49837;57.280;27.070;2022-12-20T01:56:34;6.3;;;3.4;;
63690;SDS011;49837;57.280;27.070;2022-12-20T01:58:40;6.6;;;3.7;;
63690;SDS011;49837;57.280;27.070;2022-12-20T01:59:40;6.3;;;3.5;;
63690;SDS011;49837;57.280;27.070;2022-12-20T02:00:40;6.1;;;3.7;;
63690;SDS011;49837;57.280;27.070;2022-12-20T02:01:41;6.1;;;3.6;;
63690;SDS011;49837;57.280;27.070;2022-12-20T02:02:42;7.1;;;3.9;;
63690;SDS011;49837;57.280;27.070;2022-12-20T02:03:42;6.6;;;3.7;;
63690;SDS011;49837;57.280;27.070;2022-12-20T02:04:42;6.5;;;3.4;;
63690;SDS011;49837;57.280;27.070;2022-12-20T02:05:43;6.8;;;3.4;;
63690;SDS011;49837;57.280;27.070;2022-12-20T02:06:43;6.3;;;3.6;;
63690;SDS011;49837;57.280;27.070;2022-12-20T02:07:44;7.4;;;3.8;;
63690;SDS011;49837;57.280;27.070;2022-12-20T02:08:45;6.6;;;3.8;;
63690;SDS011;49837;57.280;27.070;2022-12-20T02:09:45;6.4;;;3.6;;
63690;SDS011;49837;57.280;27.070;2022-12-20T02:10:50;6.8;;;3.8;;
63690;SDS011;49837;57.280;27.070;2022-12-20T02:12:08;6.4;;;3.5;;
63690;SDS011;49837;57.280;27.070;2022-12-20T02:12:53;5.3;;;3.4;;
63690;SDS011;49837;57.280;27.070;2022-12-20T02:13:58;7.1;;;3.6;;
63690;SDS011;49837;57.280;27.070;2022-12-20T02:15:55;6.0;;;3.6;;
63690;SDS011;49837;57.280;27.070;2022-12-20T02:18:16;6.7;;;3.4;;
63690;SDS011;49837;57.280;27.070;2022-12-20T02:22:28;6.7;;;3.3;;
63690;SDS011;49837;57.280;27.070;2022-12-20T02:23:20;5.5;;;3.2;;
63690;SDS011;49837;57.280;27.070;2022-12-20T02:27:31;5.3;;;3.3;;
63690;SDS011;49837;57.280;27.070;2022-12-20T02:28:46;5.5;;;3.3;;
63690;SDS011;49837;57.280;27.070;2022-12-20T02:29:35;6.4;;;3.8;;
63690;SDS011;49837;57.280;27.070;2022-12-20T02:30:33;6.6;;;3.8;;
63690;SDS011;49837;57.280;27.070;2022-12-20T02:31:37;6.4;;;3.3;;
63690;SDS011;49837;57.280;27.070;2022-12-20T02:33:42;7.0;;;3.6;;
63690;SDS011;49837;57.280;27.070;2022-12-20T02:34:43;7.2;;;3.8;;
63690;SDS011;49837;57.280;27.070;2022-12-20T02:35:44;6.6;;;3.7;;
63690;SDS011;49837;57.280;27.070;2022-12-20T02:36:44;6.2;;;3.5;;
63690;SDS011;49837;57.280;27.070;2022-12-20T02:37:51;6.5;;;3.4;;
63690;SDS011;49837;57.280;27.070;2022-12-20T02:38:45;6.8;;;3.3;;
63690;SDS011;49837;57.280;27.070;2022-12-20T02:39:46;7.1;;;3.9;;
63690;SDS011;49837;57.280;27.070;2022-12-20T02:40:46;7.6;;;3.3;;
63690;SDS011;49837;57.280;27.070;2022-12-20T02:41:49;6.1;;;3.6;;
63690;SDS011;49837;57.280;27.070;2022-12-20T02:42:52;6.5;;;3.5;;
63690;SDS011;49837;57.280;27.070;2022-12-20T02:43:58;6.1;;;3.8;;
63690;SDS011;49837;57.280;27.070;2022-12-20T02:45:00;7.1;;;3.8;;
63690;SDS011;49837;57.280;27.070;2022-12-20T02:46:01;6.5;;;3.6;;
63690;SDS011;49837;57.280;27.070;2022-12-20T02:47:03;6.4;;;3.3;;
63690;SDS011;49837;57.280;27.070;2022-12-20T02:48:06;5.9;;;3.5;;
63690;SDS011;49837;57.280;27.070;2022-12-20T02:49:08;6.2;;;3.4;;
63690;SDS011;49837;57.280;27.070;2022-12-20T02:50:09;5.5;;;3.6;;
63690;SDS011;49837;57.280;27.070;2022-12-20T02:51:10;7.2;;;3.8;;
63690;SDS011;49837;57.280;27.070;2022-12-20T02:52:10;6.9;;;3.8;;
63690;SDS011;49837;57.280;27.070;2022-12-20T02:53:11;7.2;;;3.7;;
63690;SDS011;49837;57.280;27.070;2022-12-20T02:54:11;7.0;;;3.7;;
63690;SDS011;49837;57.280;27.070;2022-12-20T02:55:12;6.4;;;3.7;;
63690;SDS011;49837;57.280;27.070;2022-12-20T02:56:13;7.0;;;3.7;;
63690;SDS011;49837;57.280;27.070;2022-12-20T02:58:20;7.5;;;3.6;;
63690;SDS011;49837;57.280;27.070;2022-12-20T02:59:33;6.7;;;3.8;;
63690;SDS011;49837;57.280;27.070;2022-12-20T03:00:22;5.5;;;3.2;;
63690;SDS011;49837;57.280;27.070;2022-12-20T03:01:27;7.0;;;3.6;;
63690;SDS011;49837;57.280;27.070;2022-12-20T03:02:23;5.7;;;3.3;;
63690;SDS011;49837;57.280;27.070;2022-12-20T03:03:23;6.1;;;3.3;;
63690;SDS011;49837;57.280;27.070;2022-12-20T03:04:26;6.0;;;3.7;;
63690;SDS011;49837;57.280;27.070;2022-12-20T03:05:25;6.5;;;4.1;;
63690;SDS011;49837;57.280;27.070;2022-12-20T03:06:25;6.0;;;3.4;;
63690;SDS011;49837;57.280;27.070;2022-12-20T03:07:26;5.4;;;3.2;;
63690;SDS011;49837;57.280;27.070;2022-12-20T03:08:26;6.1;;;3.5;;
63690;SDS011;49837;57.280;27.070;2022-12-20T03:09:27;6.7;;;3.4;;
63690;SDS011;49837;57.280;27.070;2022-12-20T03:10:27;6.3;;;3.5;;
63690;SDS011;49837;57.280;27.070;2022-12-20T03:11:27;6.1;;;3.2;;
63690;SDS011;49837;57.280;27.070;2022-12-20T03:12:28;5.9;;;3.4;;
63690;SDS011;49837;57.280;27.070;2022-12-20T03:13:28;6.1;;;3.7;;
63690;SDS011;49837;57.280;27.070;2022-12-20T03:14:29;5.9;;;3.4;;
63690;SDS011;49837;57.280;27.070;2022-12-20T03:15:29;5.2;;;3.2;;
63690;SDS011;49837;57.280;27.070;2022-12-20T03:16:30;6.8;;;3.3;;
63690;SDS011;49837;57.280;27.070;2022-12-20T03:17:30;6.2;;;3.4;;
63690;SDS011;49837;57.280;27.070;2022-12-20T03:18:31;5.6;;;3.3;;
63690;SDS011;49837;57.280;27.070;2022-12-20T03:19:31;6.5;;;3.5;;
63690;SDS011;49837;57.280;27.070;2022-12-20T03:20:32;5.6;;;3.3;;
63690;SDS011;49837;57.280;27.070;2022-12-20T03:21:32;6.2;;;3.8;;
63690;SDS011;49837;57.280;27.070;2022-12-20T03:22:33;5.4;;;3.2;;
63690;SDS011;49837;57.280;27.070;2022-12-20T03:23:33;6.4;;;3.4;;
63690;SDS011;49837;57.280;27.070;2022-12-20T03:24:33;6.5;;;3.3;;
63690;SDS011;49837;57.280;27.070;2022-12-20T03:25:34;6.5;;;3.2;;
63690;SDS011;49837;57.280;27.070;2022-12-20T03:26:34;5.6;;;3.4;;
63690;SDS011;49837;57.280;27.070;2022-12-20T03:27:35;5.9;;;3.4;;
63690;SDS011;49837;57.280;27.070;2022-12-20T03:28:35;5.8;;;3.4;;
63690;SDS011;49837;57.280;27.070;2022-12-20T03:29:36;5.3;;;3.0;;
63690;SDS011;49837;57.280;27.070;2022-12-20T03:30:36;6.3;;;3.6;;
63690;SDS011;49837;57.280;27.070;2022-12-20T03:31:37;5.4;;;3.6;;
63690;SDS011;49837;57.280;27.070;2022-12-20T03:32:37;6.7;;;3.5;;
63690;SDS011;49837;57.280;27.070;2022-12-20T03:33:37;6.0;;;3.4;;
63690;SDS011;49837;57.280;27.070;2022-12-20T03:34:38;5.8;;;3.9;;
63690;SDS011;49837;57.280;27.070;2022-12-20T03:35:39;5.5;;;3.5;;
63690;SDS011;49837;57.280;27.070;2022-12-20T03:36:39;5.5;;;3.2;;
63690;SDS011;49837;57.280;27.070;2022-12-20T03:37:39;6.1;;;3.3;;
63690;SDS011;49837;57.280;27.070;2022-12-20T03:38:40;5.7;;;3.3;;
63690;SDS011;49837;57.280;27.070;2022-12-20T03:39:40;6.4;;;3.5;;
63690;SDS011;49837;57.280;27.070;2022-12-20T03:40:41;6.0;;;3.3;;
63690;SDS011;49837;57.280;27.070;2022-12-20T03:41:41;5.9;;;3.3;;
63690;SDS011;49837;57.280;27.070;2022-12-20T03:42:42;5.6;;;3.3;;
63690;SDS011;49837;57.280;27.070;2022-12-20T03:43:42;6.2;;;3.5;;
63690;SDS011;49837;57.280;27.070;2022-12-20T03:44:43;5.8;;;3.3;;
63690;SDS011;49837;57.280;27.070;2022-12-20T03:45:43;6.0;;;3.5;;
63690;SDS011;49837;57.280;27.070;2022-12-20T03:46:44;5.9;;;3.5;;
63690;SDS011;49837;57.280;27.070;2022-12-20T03:47:44;6.7;;;3.5;;
63690;SDS011;49837;57.280;27.070;2022-12-20T03:48:44;6.7;;;3.8;;
63690;SDS011;49837;57.280;27.070;2022-12-20T03:49:45;5.7;;;3.6;;
63690;SDS011;49837;57.280;27.070;2022-12-20T03:50:45;6.2;;;3.5;;
63690;SDS011;49837;57.280;27.070;2022-12-20T03:51:46;5.6;;;3.3;;
63690;SDS011;49837;57.280;27.070;2022-12-20T03:52:46;5.8;;;3.5;;
63690;SDS011;49837;57.280;27.070;2022-12-20T03:53:47;5.8;;;3.5;;
63690;SDS011;49837;57.280;27.070;2022-12-20T03:54:47;6.8;;;3.5;;
63690;SDS011;49837;57.280;27.070;2022-12-20T03:55:48;6.1;;;3.3;;
63690;SDS011;49837;57.280;27.070;2022-12-20T03:56:48;7.3;;;3.5;;
63690;SDS011;49837;57.280;27.070;2022-12-20T03:57:48;5.8;;;3.5;;
63690;SDS011;49837;57.280;27.070;2022-12-20T03:58:49;6.1;;;3.4;;
63690;SDS011;49837;57.280;27.070;2022-12-20T03:59:49;6.8;;;3.8;;
63690;SDS011;49837;57.280;27.070;2022-12-20T04:00:50;6.4;;;3.4;;
63690;SDS011;49837;57.280;27.070;2022-12-20T04:01:50;5.7;;;3.4;;
63690;SDS011;49837;57.280;27.070;2022-12-20T04:02:51;6.9;;;3.7;;
63690;SDS011;49837;57.280;27.070;2022-12-20T04:03:51;6.9;;;3.8;;
63690;SDS011;49837;57.280;27.070;2022-12-20T04:04:52;6.1;;;3.6;;
63690;SDS011;49837;57.280;27.070;2022-12-20T04:05:52;5.5;;;3.4;;
63690;SDS011;49837;57.280;27.070;2022-12-20T04:06:53;5.4;;;3.5;;
63690;SDS011;49837;57.280;27.070;2022-12-20T04:07:53;5.8;;;3.4;;
63690;SDS011;49837;57.280;27.070;2022-12-20T04:08:54;6.3;;;3.7;;
63690;SDS011;49837;57.280;27.070;2022-12-20T04:09:54;6.5;;;3.5;;
63690;SDS011;49837;57.280;27.070;2022-12-20T04:10:54;6.4;;;3.3;;
63690;SDS011;49837;57.280;27.070;2022-12-20T04:11:55;6.4;;;3.6;;
63690;SDS011;49837;57.280;27.070;2022-12-20T04:12:55;5.1;;;3.4;;
63690;SDS011;49837;57.280;27.070;2022-12-20T04:13:56;6.1;;;3.3;;
63690;SDS011;49837;57.280;27.070;2022-12-20T04:14:56;5.5;;;3.2;;
63690;SDS011;49837;57.280;27.070;2022-12-20T04:15:56;6.9;;;3.7;;
63690;SDS011;49837;57.280;27.070;2022-12-20T04:16:57;6.9;;;4.0;;
63690;SDS011;49837;57.280;27.070;2022-12-20T04:17:57;6.9;;;4.0;;
63690;SDS011;49837;57.280;27.070;2022-12-20T04:18:57;6.7;;;4.1;;
63690;SDS011;49837;57.280;27.070;2022-12-20T04:19:58;7.4;;;4.0;;
63690;SDS011;49837;57.280;27.070;2022-12-20T04:20:59;5.7;;;3.7;;
63690;SDS011;49837;57.280;27.070;2022-12-20T04:21:59;6.0;;;3.6;;
63690;SDS011;49837;57.280;27.070;2022-12-20T04:23:02;7.1;;;4.1;;
63690;SDS011;49837;57.280;27.070;2022-12-20T04:24:02;6.3;;;3.6;;
63690;SDS011;49837;57.280;27.070;2022-12-20T04:25:03;6.1;;;3.8;;
63690;SDS011;49837;57.280;27.070;2022-12-20T04:26:04;6.3;;;3.6;;
63690;SDS011;49837;57.280;27.070;2022-12-20T04:27:03;6.5;;;4.0;;
63690;SDS011;49837;57.280;27.070;2022-12-20T04:28:04;6.3;;;3.5;;
63690;SDS011;49837;57.280;27.070;2022-12-20T04:29:04;6.4;;;3.6;;
63690;SDS011;49837;57.280;27.070;2022-12-20T04:30:05;6.4;;;3.7;;
63690;SDS011;49837;57.280;27.070;2022-12-20T04:31:05;6.9;;;3.8;;
63690;SDS011;49837;57.280;27.070;2022-12-20T04:32:05;6.4;;;4.0;;
63690;SDS011;49837;57.280;27.070;2022-12-20T04:33:06;6.9;;;4.3;;
63690;SDS011;49837;57.280;27.070;2022-12-20T04:34:06;5.8;;;3.6;;
63690;SDS011;49837;57.280;27.070;2022-12-20T04:35:07;6.1;;;3.7;;
63690;SDS011;49837;57.280;27.070;2022-12-20T04:36:07;5.8;;;3.9;;
63690;SDS011;49837;57.280;27.070;2022-12-20T04:37:07;7.7;;;3.9;;
63690;SDS011;49837;57.280;27.070;2022-12-20T04:38:08;7.6;;;4.1;;
63690;SDS011;49837;57.280;27.070;2022-12-20T04:39:08;7.0;;;3.9;;
63690;SDS011;49837;57.280;27.070;2022-12-20T04:40:09;6.9;;;3.9;;
63690;SDS011;49837;57.280;27.070;2022-12-20T04:41:09;6.2;;;3.5;;
63690;SDS011;49837;57.280;27.070;2022-12-20T04:42:09;6.4;;;3.5;;
63690;SDS011;49837;57.280;27.070;2022-12-20T04:43:10;6.2;;;3.8;;
63690;SDS011;49837;57.280;27.070;2022-12-20T04:44:10;6.7;;;3.9;;
63690;SDS011;49837;57.280;27.070;2022-12-20T04:45:10;6.6;;;3.7;;
63690;SDS011;49837;57.280;27.070;2022-12-20T04:46:11;7.0;;;3.8;;
63690;SDS011;49837;57.280;27.070;2022-12-20T04:47:11;6.2;;;3.9;;
63690;SDS011;49837;57.280;27.070;2022-12-20T04:48:12;6.6;;;3.9;;
63690;SDS011;49837;57.280;27.070;2022-12-20T04:49:14;11.2;;;6.4;;
63690;SDS011;49837;57.280;27.070;2022-12-20T04:50:14;8.7;;;4.9;;
63690;SDS011;49837;57.280;27.070;2022-12-20T04:51:15;7.2;;;4.2;;
63690;SDS011;49837;57.280;27.070;2022-12-20T04:52:15;8.8;;;5.4;;
63690;SDS011;49837;57.280;27.070;2022-12-20T04:53:15;6.8;;;3.9;;
63690;SDS011;49837;57.280;27.070;2022-12-20T04:54:16;6.5;;;4.0;;
63690;SDS011;49837;57.280;27.070;2022-12-20T04:55:16;6.3;;;3.8;;
63690;SDS011;49837;57.280;27.070;2022-12-20T04:56:18;6.9;;;3.8;;
63690;SDS011;49837;57.280;27.070;2022-12-20T04:57:17;7.8;;;3.9;;
63690;SDS011;49837;57.280;27.070;2022-12-20T04:58:17;6.8;;;3.7;;
63690;SDS011;49837;57.280;27.070;2022-12-20T04:59:18;7.1;;;3.9;;
63690;SDS011;49837;57.280;27.070;2022-12-20T05:00:18;6.3;;;4.0;;
63690;SDS011;49837;57.280;27.070;2022-12-20T05:01:19;5.5;;;3.4;;
63690;SDS011;49837;57.280;27.070;2022-12-20T05:02:19;6.8;;;3.8;;
63690;SDS011;49837;57.280;27.070;2022-12-20T05:03:20;6.2;;;4.1;;
63690;SDS011;49837;57.280;27.070;2022-12-20T05:04:20;6.1;;;3.8;;
63690;SDS011;49837;57.280;27.070;2022-12-20T05:05:20;7.8;;;4.7;;
63690;SDS011;49837;57.280;27.070;2022-12-20T05:06:20;6.5;;;4.3;;
63690;SDS011;49837;57.280;27.070;2022-12-20T05:07:21;7.7;;;4.3;;
63690;SDS011;49837;57.280;27.070;2022-12-20T05:08:21;6.5;;;4.1;;
63690;SDS011;49837;57.280;27.070;2022-12-20T05:09:21;6.6;;;4.1;;
63690;SDS011;49837;57.280;27.070;2022-12-20T05:10:22;6.2;;;3.7;;
63690;SDS011;49837;57.280;27.070;2022-12-20T05:11:22;6.9;;;3.9;;
63690;SDS011;49837;57.280;27.070;2022-12-20T05:12:23;7.3;;;3.8;;
63690;SDS011;49837;57.280;27.070;2022-12-20T05:13:23;6.1;;;3.6;;
63690;SDS011;49837;57.280;27.070;2022-12-20T05:14:23;7.1;;;3.6;;
63690;SDS011;49837;57.280;27.070;2022-12-20T05:15:24;6.5;;;4.0;;
63690;SDS011;49837;57.280;27.070;2022-12-20T05:16:24;6.2;;;3.7;;
63690;SDS011;49837;57.280;27.070;2022-12-20T05:17:24;6.7;;;4.5;;
63690;SDS011;49837;57.280;27.070;2022-12-20T05:18:25;7.3;;;4.5;;
63690;SDS011;49837;57.280;27.070;2022-12-20T05:19:25;6.0;;;3.7;;
63690;SDS011;49837;57.280;27.070;2022-12-20T05:20:26;6.4;;;3.9;;
63690;SDS011;49837;57.280;27.070;2022-12-20T05:21:26;6.4;;;4.1;;
63690;SDS011;49837;57.280;27.070;2022-12-20T05:22:26;6.3;;;3.8;;
63690;SDS011;49837;57.280;27.070;2022-12-20T05:23:27;6.3;;;4.0;;
63690;SDS011;49837;57.280;27.070;2022-12-20T05:24:27;11.1;;;8.5;;
63690;SDS011;49837;57.280;27.070;2022-12-20T05:25:27;16.0;;;9.4;;
63690;SDS011;49837;57.280;27.070;2022-12-20T05:26:29;11.4;;;6.1;;
63690;SDS011;49837;57.280;27.070;2022-12-20T05:27:29;9.8;;;5.4;;
63690;SDS011;49837;57.280;27.070;2022-12-20T05:28:29;6.7;;;3.9;;
63690;SDS011;49837;57.280;27.070;2022-12-20T05:29:29;5.8;;;3.5;;
63690;SDS011;49837;57.280;27.070;2022-12-20T05:30:30;6.5;;;3.9;;
63690;SDS011;49837;57.280;27.070;2022-12-20T05:31:30;7.4;;;4.3;;
63690;SDS011;49837;57.280;27.070;2022-12-20T05:32:30;6.2;;;3.6;;
63690;SDS011;49837;57.280;27.070;2022-12-20T05:33:31;8.4;;;6.1;;
63690;SDS011;49837;57.280;27.070;2022-12-20T05:34:31;7.5;;;4.6;;
63690;SDS011;49837;57.280;27.070;2022-12-20T05:35:32;7.6;;;4.4;;
63690;SDS011;49837;57.280;27.070;2022-12-20T05:36:32;7.1;;;4.5;;
63690;SDS011;49837;57.280;27.070;2022-12-20T05:37:32;7.2;;;4.7;;
63690;SDS011;49837;57.280;27.070;2022-12-20T05:38:33;9.7;;;6.1;;
63690;SDS011;49837;57.280;27.070;2022-12-20T05:39:33;8.6;;;4.2;;
63690;SDS011;49837;57.280;27.070;2022-12-20T05:40:34;7.6;;;4.8;;
63690;SDS011;49837;57.280;27.070;2022-12-20T05:41:34;6.6;;;4.1;;
63690;SDS011;49837;57.280;27.070;2022-12-20T05:42:34;6.5;;;4.1;;
63690;SDS011;49837;57.280;27.070;2022-12-20T05:43:35;7.7;;;4.1;;
63690;SDS011;49837;57.280;27.070;2022-12-20T05:44:35;7.0;;;3.9;;
63690;SDS011;49837;57.280;27.070;2022-12-20T05:45:35;6.8;;;4.2;;
63690;SDS011;49837;57.280;27.070;2022-12-20T05:46:36;7.3;;;4.0;;
63690;SDS011;49837;57.280;27.070;2022-12-20T05:47:36;6.5;;;4.0;;
63690;SDS011;49837;57.280;27.070;2022-12-20T05:48:37;6.2;;;3.6;;
63690;SDS011;49837;57.280;27.070;2022-12-20T05:49:37;9.9;;;6.2;;
63690;SDS011;49837;57.280;27.070;2022-12-20T05:50:37;10.0;;;5.4;;
63690;SDS011;49837;57.280;27.070;2022-12-20T05:51:38;7.7;;;4.6;;
63690;SDS011;49837;57.280;27.070;2022-12-20T05:52:38;7.0;;;4.0;;
63690;SDS011;49837;57.280;27.070;2022-12-20T05:53:39;7.9;;;4.9;;
63690;SDS011;49837;57.280;27.070;2022-12-20T05:54:39;6.6;;;4.3;;
63690;SDS011;49837;57.280;27.070;2022-12-20T05:55:43;7.9;;;5.0;;
63690;SDS011;49837;57.280;27.070;2022-12-20T05:56:41;6.6;;;4.5;;
63690;SDS011;49837;57.280;27.070;2022-12-20T05:57:42;6.0;;;3.7;;
63690;SDS011;49837;57.280;27.070;2022-12-20T05:58:42;6.6;;;4.0;;
63690;SDS011;49837;57.280;27.070;2022-12-20T05:59:43;6.7;;;3.9;;
63690;SDS011;49837;57.280;27.070;2022-12-20T06:00:43;5.5;;;3.7;;
63690;SDS011;49837;57.280;27.070;2022-12-20T06:01:43;7.2;;;4.0;;
63690;SDS011;49837;57.280;27.070;2022-12-20T06:02:44;7.3;;;3.8;;
63690;SDS011;49837;57.280;27.070;2022-12-20T06:03:44;6.3;;;3.9;;
63690;SDS011;49837;57.280;27.070;2022-12-20T06:04:44;8.0;;;4.0;;
63690;SDS011;49837;57.280;27.070;2022-12-20T06:05:45;6.1;;;4.1;;
63690;SDS011;49837;57.280;27.070;2022-12-20T06:06:45;7.1;;;4.1;;
63690;SDS011;49837;57.280;27.070;2022-12-20T06:07:45;6.8;;;3.9;;
63690;SDS011;49837;57.280;27.070;2022-12-20T06:08:46;5.8;;;3.6;;
63690;SDS011;49837;57.280;27.070;2022-12-20T06:09:46;6.6;;;3.7;;
63690;SDS011;49837;57.280;27.070;2022-12-20T06:10:47;8.6;;;4.3;;
63690;SDS011;49837;57.280;27.070;2022-12-20T06:11:47;7.8;;;3.6;;
63690;SDS011;49837;57.280;27.070;2022-12-20T06:12:48;6.1;;;3.7;;
63690;SDS011;49837;57.280;27.070;2022-12-20T06:13:48;6.5;;;3.8;;
63690;SDS011;49837;57.280;27.070;2022-12-20T06:14:48;7.5;;;4.4;;
63690;SDS011;49837;57.280;27.070;2022-12-20T06:15:48;6.5;;;4.2;;
63690;SDS011;49837;57.280;27.070;2022-12-20T06:16:49;6.9;;;4.2;;
63690;SDS011;49837;57.280;27.070;2022-12-20T06:17:49;7.2;;;4.2;;
63690;SDS011;49837;57.280;27.070;2022-12-20T06:18:50;6.3;;;4.1;;
63690;SDS011;49837;57.280;27.070;2022-12-20T06:19:50;7.2;;;4.5;;
63690;SDS011;49837;57.280;27.070;2022-12-20T06:20:51;6.7;;;3.9;;
63690;SDS011;49837;57.280;27.070;2022-12-20T06:21:51;6.5;;;3.9;;
63690;SDS011;49837;57.280;27.070;2022-12-20T06:22:51;6.2;;;3.8;;